Time;durP1;ratioP1;P1;durP2;ratioP2;P2;SDS_P1;SDS_P2;PMS_P1;PMS_P2;Temp;Humidity;BMP_temperature;BMP_pressure;BME280_temperature;BME280_humidity;BME280_pressure;Samples;Min_cycle;Max_cycle;Signal;HPM_P1;HPM_P2
2024/01/24 00:02:20;;;;;;;9.50;3.90;;;;;;;1.44;83.01;97496.66;108705;1272;172428;-79
2024/01/24 00:04:53;;;;;;;10.20;4.00;;;;;;;1.39;82.84;97495.11;108800;1273;22538;-79
2024/01/24 00:07:25;;;;;;;9.00;4.60;;;;;;;1.38;83.17;97496.27;108829;1272;22518;-79
2024/01/24 00:09:58;;;;;;;10.50;4.20;;;;;;;1.39;83.37;97482.33;108782;1273;22756;-79
2024/01/24 00:12:30;;;;;;;9.00;4.40;;;;;;;1.38;83.32;97476.05;108781;1273;22539;-79
2024/01/24 00:15:03;;;;;;;8.50;4.40;;;;;;;1.37;83.20;97480.27;108831;1272;23015;-79
2024/01/24 00:17:35;;;;;;;10.40;4.80;;;;;;;1.36;83.46;97480.03;108819;1271;22574;-79
2024/01/24 00:20:07;;;;;;;7.00;3.40;;;;;;;1.37;83.43;97470.42;108811;1270;25619;-79
2024/01/24 00:22:40;;;;;;;11.70;5.00;;;;;;;1.42;83.67;97472.66;108873;1273;22529;-79
2024/01/24 00:25:13;;;;;;;10.50;4.60;;;;;;;1.44;83.70;97466.44;108748;1273;22513;-79
2024/01/24 00:27:49;;;;;;;9.10;3.80;;;;;;;1.45;83.53;97460.36;108815;1267;22536;-79
2024/01/24 00:30:27;;;;;;;7.50;3.80;;;;;;;1.42;83.50;97462.58;108781;1267;22666;-79
2024/01/24 00:32:59;;;;;;;9.50;4.20;;;;;;;1.39;83.61;97463.40;108839;1267;22531;-79
2024/01/24 00:35:34;;;;;;;9.90;4.20;;;;;;;1.35;83.41;97460.14;108832;1272;22754;-79
2024/01/24 00:38:06;;;;;;;10.90;4.50;;;;;;;1.32;83.48;97454.96;108808;1273;23264;-79
2024/01/24 00:40:40;;;;;;;9.50;3.80;;;;;;;1.30;83.41;97459.14;108827;1273;22503;-79
2024/01/24 00:43:14;;;;;;;10.20;4.50;;;;;;;1.28;83.62;97465.86;108790;1273;22536;-79
2024/01/24 00:45:47;;;;;;;9.30;4.60;;;;;;;1.26;83.71;97465.02;108795;1267;22627;-79
2024/01/24 00:48:20;;;;;;;11.30;5.10;;;;;;;1.24;83.52;97456.10;108835;1273;23083;-79
2024/01/24 00:50:56;;;;;;;9.30;3.60;;;;;;;1.21;83.75;97455.54;108776;1272;22529;-79
2024/01/24 00:53:34;;;;;;;7.20;3.40;;;;;;;1.21;83.74;97450.02;108866;1273;25332;-79
2024/01/24 00:56:09;;;;;;;12.50;4.30;;;;;;;1.18;83.80;97441.19;108811;1272;23979;-79
2024/01/24 00:58:45;;;;;;;10.00;3.80;;;;;;;1.17;84.34;97428.02;108793;1272;22990;-80
2024/01/24 01:01:18;;;;;;;7.20;4.20;;;;;;;1.15;84.23;97429.34;108795;1272;26613;-79
2024/01/24 01:03:52;;;;;;;10.90;5.20;;;;;;;1.11;84.45;97422.45;108821;1273;22987;-79
2024/01/24 01:06:28;;;;;;;8.40;4.40;;;;;;;1.10;84.93;97415.02;108846;1272;22518;-79
2024/01/24 01:09:00;;;;;;;9.20;4.90;;;;;;;1.07;84.93;97402.73;108821;1270;22517;-80
2024/01/24 01:11:34;;;;;;;8.50;4.30;;;;;;;1.00;84.53;97408.63;108826;1272;23050;-79
2024/01/24 01:14:08;;;;;;;9.20;4.60;;;;;;;0.95;84.55;97406.55;108823;1273;23132;-79
2024/01/24 01:16:41;;;;;;;9.50;4.30;;;;;;;0.94;85.13;97410.23;108819;1272;22541;-79
2024/01/24 01:19:11;;;;;;;8.60;4.00;;;;;;;0.97;84.92;97410.08;108816;1272;23839;-79
2024/01/24 01:21:42;;;;;;;8.40;3.30;;;;;;;1.03;84.84;97399.59;108784;1272;23000;-79
2024/01/24 01:24:13;;;;;;;8.90;3.80;;;;;;;1.03;84.62;97396.54;108792;1266;22942;-79
2024/01/24 01:26:44;;;;;;;10.90;3.70;;;;;;;1.06;84.56;97395.28;108823;1272;22521;-79
2024/01/24 01:29:23;;;;;;;11.60;3.10;;;;;;;1.09;84.33;97401.27;108803;1272;22514;-79
2024/01/24 01:31:54;;;;;;;7.80;3.00;;;;;;;1.13;84.28;97409.56;108768;1272;22632;-79
2024/01/24 01:34:25;;;;;;;8.70;3.60;;;;;;;1.19;83.97;97411.73;108797;1272;22528;-79
2024/01/24 01:37:01;;;;;;;10.20;3.80;;;;;;;1.23;83.69;97405.55;108865;1272;23854;-79
2024/01/24 01:39:38;;;;;;;9.10;3.50;;;;;;;1.23;83.37;97404.95;108839;1267;22555;-79
2024/01/24 01:42:11;;;;;;;8.00;3.40;;;;;;;1.19;83.14;97382.85;108844;1272;22530;-79
2024/01/24 01:44:49;;;;;;;7.70;3.10;;;;;;;1.11;83.22;97372.95;108804;1265;22633;-79
2024/01/24 01:47:21;;;;;;;11.00;3.60;;;;;;;1.03;83.05;97370.70;108793;1272;24282;-79
2024/01/24 01:49:53;;;;;;;15.00;3.20;;;;;;;0.96;83.19;97354.58;108817;1272;22524;-79
2024/01/24 01:52:28;;;;;;;6.50;3.40;;;;;;;0.91;83.15;97345.58;108892;1266;23412;-79
2024/01/24 01:55:01;;;;;;;6.20;3.40;;;;;;;0.88;83.08;97349.23;108844;1273;22519;-79
2024/01/24 01:57:33;;;;;;;9.20;3.40;;;;;;;0.87;83.06;97350.77;108850;1272;25242;-79
2024/01/24 02:00:06;;;;;;;8.60;3.80;;;;;;;0.88;83.24;97349.44;108823;1272;22546;-79
2024/01/24 02:02:37;;;;;;;6.40;3.50;;;;;;;0.86;83.09;97332.25;108846;1269;22547;-79
2024/01/24 02:05:09;;;;;;;8.00;3.50;;;;;;;0.85;82.92;97329.08;108829;1250;22540;-79
2024/01/24 02:07:42;;;;;;;5.50;2.60;;;;;;;0.81;82.92;97320.70;108822;1269;22546;-79
2024/01/24 02:10:14;;;;;;;9.00;3.20;;;;;;;0.78;82.75;97312.95;108767;1272;23410;-79
2024/01/24 02:12:47;;;;;;;10.70;3.40;;;;;;;0.78;82.95;97303.40;108804;1272;23669;-80
2024/01/24 02:15:21;;;;;;;5.80;2.40;;;;;;;0.80;82.83;97294.92;108860;1272;22531;-79
2024/01/24 02:17:57;;;;;;;9.80;3.60;;;;;;;0.89;82.95;97277.16;108780;1269;22532;-79
2024/01/24 02:20:30;;;;;;;8.30;4.00;;;;;;;0.98;82.97;97244.38;108775;1267;25546;-79
2024/01/24 02:23:02;;;;;;;8.90;2.20;;;;;;;1.12;82.41;97258.04;108853;1273;24180;-79
2024/01/24 02:25:38;;;;;;;9.40;3.20;;;;;;;1.15;82.06;97250.20;108787;1272;23760;-79
2024/01/24 02:28:11;;;;;;;10.00;3.20;;;;;;;1.12;81.98;97252.11;108810;1259;22521;-80
2024/01/24 02:30:42;;;;;;;7.80;3.20;;;;;;;1.07;81.96;97242.64;108798;1273;22514;-79
2024/01/24 02:33:14;;;;;;;8.00;2.80;;;;;;;1.04;81.94;97239.32;108824;1272;22567;-79
2024/01/24 02:35:45;;;;;;;7.80;2.80;;;;;;;1.02;81.66;97234.78;108801;1272;22514;-79
2024/01/24 02:38:18;;;;;;;5.00;2.20;;;;;;;1.00;81.65;97232.02;108795;1252;23273;-80
2024/01/24 02:40:48;;;;;;;6.30;2.30;;;;;;;0.97;81.48;97225.73;108786;1272;22587;-80
2024/01/24 02:43:19;;;;;;;7.00;2.70;;;;;;;0.98;81.46;97213.96;108853;1267;22560;-80
2024/01/24 02:45:53;;;;;;;8.80;3.10;;;;;;;1.03;81.33;97208.27;108790;1273;25437;-77
2024/01/24 02:48:26;;;;;;;4.50;1.70;;;;;;;1.03;81.09;97203.89;108824;1273;23327;-78
2024/01/24 02:51:00;;;;;;;10.80;2.70;;;;;;;0.99;80.99;97191.93;108775;1273;23107;-79
2024/01/24 02:53:35;;;;;;;9.40;2.70;;;;;;;1.00;80.88;97194.27;108847;1270;22797;-78
2024/01/24 02:56:08;;;;;;;5.80;2.60;;;;;;;0.99;80.70;97186.35;108799;1273;22513;-78
2024/01/24 02:58:42;;;;;;;6.60;2.30;;;;;;;1.03;80.65;97176.38;108831;1272;25400;-78
2024/01/24 03:01:14;;;;;;;4.80;1.90;;;;;;;1.08;80.25;97164.63;108794;1273;22526;-78
2024/01/24 03:03:48;;;;;;;11.40;2.90;;;;;;;1.08;80.01;97154.52;108812;1273;22621;-78
2024/01/24 03:06:19;;;;;;;4.40;2.00;;;;;;;1.10;79.89;97142.41;108810;1273;22511;-79
2024/01/24 03:09:01;;;;;;;5.20;2.20;;;;;;;1.11;79.42;97137.75;108860;1269;25290;-78
2024/01/24 03:11:35;;;;;;;5.60;1.90;;;;;;;1.14;79.34;97146.88;108798;1266;23677;-79
2024/01/24 03:14:06;;;;;;;5.50;2.60;;;;;;;1.18;79.02;97140.02;108852;1266;22534;-79
2024/01/24 03:16:40;;;;;;;5.70;2.10;;;;;;;1.19;78.35;97121.35;108816;1266;24435;-79
2024/01/24 03:19:13;;;;;;;8.50;2.50;;;;;;;1.16;78.56;97110.55;108801;1266;24240;-79
2024/01/24 03:21:47;;;;;;;7.70;2.20;;;;;;;1.12;78.17;97092.45;108777;1273;24050;-78
2024/01/24 03:24:20;;;;;;;9.00;2.10;;;;;;;1.09;77.84;97090.84;108841;1272;22702;-79
2024/01/24 03:26:51;;;;;;;6.40;1.90;;;;;;;1.09;77.74;97088.42;108800;1272;22517;-79
2024/01/24 03:29:23;;;;;;;8.10;2.30;;;;;;;1.10;77.76;97079.66;108782;1273;22986;-79
2024/01/24 03:31:53;;;;;;;3.60;2.30;;;;;;;1.14;77.55;97073.20;108750;1266;25254;-79
2024/01/24 03:34:30;;;;;;;8.20;2.50;;;;;;;1.15;77.37;97057.98;108815;1273;23878;-79
2024/01/24 03:37:03;;;;;;;7.10;2.40;;;;;;;1.14;77.22;97067.26;108859;1269;25125;-78
2024/01/24 03:39:37;;;;;;;5.80;2.40;;;;;;;1.14;77.09;97063.04;108800;1272;24302;-78
2024/01/24 03:42:08;;;;;;;3.80;1.90;;;;;;;1.12;77.11;97056.48;108862;1272;23751;-78
2024/01/24 03:44:39;;;;;;;6.90;2.40;;;;;;;1.10;77.19;97066.25;108901;1273;22534;-78
2024/01/24 03:47:10;;;;;;;5.60;2.30;;;;;;;1.13;76.86;97061.88;108816;1273;22574;-78
2024/01/24 03:49:43;;;;;;;4.10;2.20;;;;;;;1.16;76.65;97052.47;108798;1273;25310;-78
2024/01/24 03:52:14;;;;;;;4.30;2.40;;;;;;;1.17;76.56;97052.05;108838;1273;23531;-78
2024/01/24 03:54:49;;;;;;;6.30;2.60;;;;;;;1.26;76.38;97059.08;108853;1269;22525;-79
2024/01/24 03:57:20;;;;;;;6.80;1.70;;;;;;;1.32;76.08;97064.40;108768;1269;22518;-78
2024/01/24 03:59:53;;;;;;;6.80;2.50;;;;;;;1.37;76.07;97069.08;108840;1272;22548;-78
2024/01/24 04:02:24;;;;;;;5.60;2.40;;;;;;;1.41;75.93;97063.64;108776;1266;25610;-79
2024/01/24 04:04:56;;;;;;;5.70;2.50;;;;;;;1.44;75.69;97049.20;108832;1266;22860;-78
2024/01/24 04:07:27;;;;;;;5.10;2.10;;;;;;;1.46;75.56;97053.65;108808;1273;22510;-78
2024/01/24 04:10:00;;;;;;;6.00;1.70;;;;;;;1.47;75.64;97045.20;108764;1272;23882;-78
2024/01/24 04:12:34;;;;;;;4.60;2.20;;;;;;;1.52;74.90;97017.98;108791;1273;22528;-78
2024/01/24 04:15:06;;;;;;;6.20;1.90;;;;;;;1.58;74.63;97008.08;108860;1273;22548;-78
2024/01/24 04:17:39;;;;;;;6.50;1.90;;;;;;;1.64;73.89;96992.39;108820;1272;22605;-78
2024/01/24 04:20:14;;;;;;;4.20;1.50;;;;;;;1.69;73.58;96979.40;108749;1269;23283;-78
2024/01/24 04:22:47;;;;;;;7.90;2.50;;;;;;;1.69;73.31;96980.65;108822;1273;24216;-78
2024/01/24 04:25:24;;;;;;;4.40;1.60;;;;;;;1.74;73.26;96963.81;108834;1273;22539;-78
2024/01/24 04:27:55;;;;;;;7.70;2.40;;;;;;;1.76;73.36;96962.31;108799;1256;22520;-78
2024/01/24 04:30:46;;;;;;;6.20;2.10;;;;;;;1.75;73.54;96960.34;108752;1272;24523;-78
2024/01/24 04:33:18;;;;;;;8.50;1.80;;;;;;;1.81;73.24;96954.18;108830;1266;22527;-78
2024/01/24 04:35:49;;;;;;;9.10;2.30;;;;;;;1.89;73.49;96961.36;108799;1266;22526;-78
2024/01/24 04:38:27;;;;;;;3.50;1.40;;;;;;;1.97;73.06;96944.60;108763;1273;22625;-78
2024/01/24 04:41:02;;;;;;;7.10;2.60;;;;;;;1.98;73.06;96934.83;108776;1266;22559;-78
2024/01/24 04:43:33;;;;;;;3.40;2.00;;;;;;;1.98;73.08;96925.26;108820;1273;22629;-78
2024/01/24 04:46:12;;;;;;;11.50;2.60;;;;;;;1.98;72.96;96934.70;108843;1272;22552;-78
2024/01/24 04:48:44;;;;;;;6.00;2.00;;;;;;;2.01;72.90;96925.58;108767;1267;23412;-78
2024/01/24 04:51:18;;;;;;;6.00;2.00;;;;;;;2.05;72.75;96920.33;108790;1273;25436;-78
2024/01/24 04:53:50;;;;;;;9.60;2.80;;;;;;;2.04;72.95;96912.23;108764;1272;22544;-78
2024/01/24 04:56:24;;;;;;;8.00;2.20;;;;;;;2.05;73.08;96917.12;108819;1267;22557;-78
2024/01/24 04:58:57;;;;;;;5.70;2.20;;;;;;;2.07;72.92;96896.42;108820;1266;22523;-78
2024/01/24 05:01:29;;;;;;;6.60;2.10;;;;;;;2.09;72.98;96916.20;108832;1272;22570;-79
2024/01/24 05:04:04;;;;;;;4.60;2.40;;;;;;;2.12;72.89;96916.70;108783;1266;24218;-78
2024/01/24 05:06:35;;;;;;;7.90;2.40;;;;;;;2.14;72.88;96913.38;108845;1272;25348;-79
2024/01/24 05:09:09;;;;;;;7.60;2.10;;;;;;;2.16;72.98;96908.72;108755;1266;22560;-78
2024/01/24 05:11:42;;;;;;;3.90;2.20;;;;;;;2.20;72.72;96913.02;108807;1266;22545;-79
2024/01/24 05:14:15;;;;;;;5.30;1.70;;;;;;;2.28;72.74;96925.27;108792;1273;22521;-78
2024/01/24 05:16:47;;;;;;;7.40;2.60;;;;;;;2.29;72.78;96918.93;108832;1266;22550;-78
2024/01/24 05:19:21;;;;;;;8.30;1.90;;;;;;;2.27;72.77;96919.56;108783;1273;22523;-78
2024/01/24 05:21:55;;;;;;;6.20;1.50;;;;;;;2.27;73.07;96908.41;108815;1273;24205;-78
2024/01/24 05:24:28;;;;;;;7.70;1.70;;;;;;;2.30;73.25;96905.27;108792;1273;25038;-79
2024/01/24 05:27:05;;;;;;;6.30;1.70;;;;;;;2.42;73.21;96898.52;108823;1272;22622;-78
2024/01/24 05:29:41;;;;;;;4.80;2.20;;;;;;;2.47;73.28;96895.26;108793;1266;22521;-78
2024/01/24 05:32:18;;;;;;;6.00;2.30;;;;;;;2.54;73.36;96877.55;108766;1272;22540;-79
2024/01/24 05:34:52;;;;;;;6.60;2.20;;;;;;;2.65;73.12;96879.25;108824;1272;22527;-79
2024/01/24 05:37:25;;;;;;;6.60;1.90;;;;;;;2.71;73.13;96883.20;108849;1272;25416;-79
2024/01/24 05:40:01;;;;;;;8.80;1.80;;;;;;;2.76;72.99;96874.80;108780;1272;25100;-79
2024/01/24 05:42:33;;;;;;;3.60;1.70;;;;;;;2.74;73.05;96880.48;108774;1272;24177;-79
2024/01/24 05:45:05;;;;;;;5.30;1.60;;;;;;;2.73;73.13;96861.96;108808;1272;22574;-79
2024/01/24 05:47:37;;;;;;;8.70;2.40;;;;;;;2.74;73.18;96857.73;108884;1266;24081;-79
2024/01/24 05:50:13;;;;;;;7.70;2.80;;;;;;;2.76;73.23;96859.77;108787;1272;22509;-78
2024/01/24 05:52:45;;;;;;;5.10;2.90;;;;;;;2.81;73.25;96846.42;108848;1273;22524;-79
2024/01/24 05:55:19;;;;;;;7.30;2.30;;;;;;;2.82;73.42;96852.50;108791;1252;22520;-79
2024/01/24 05:57:52;;;;;;;4.90;1.90;;;;;;;2.87;73.44;96839.85;108840;1272;22528;-78
2024/01/24 06:00:28;;;;;;;5.70;1.80;;;;;;;2.89;73.73;96836.64;108843;1266;22524;-79
2024/01/24 06:03:04;;;;;;;12.70;1.80;;;;;;;2.92;73.86;96814.35;108842;1266;23814;-78
2024/01/24 06:05:36;;;;;;;5.00;1.60;;;;;;;2.92;73.97;96815.72;108800;1266;22510;-79
2024/01/24 06:08:07;;;;;;;4.30;2.00;;;;;;;2.93;74.13;96811.80;108798;1272;23744;-79
2024/01/24 06:10:39;;;;;;;5.30;1.90;;;;;;;2.91;74.38;96807.94;108766;1272;22643;-79
2024/01/24 06:13:15;;;;;;;4.80;1.90;;;;;;;2.88;74.67;96795.40;108874;1265;22521;-79
2024/01/24 06:15:48;;;;;;;6.30;2.00;;;;;;;2.84;74.82;96784.96;108800;1269;26529;-79
2024/01/24 06:18:20;;;;;;;10.20;2.70;;;;;;;2.85;75.01;96763.92;108832;1272;23869;-78
2024/01/24 06:20:51;;;;;;;4.70;2.00;;;;;;;2.88;75.01;96766.81;108788;1272;26671;-79
2024/01/24 06:23:22;;;;;;;7.30;2.80;;;;;;;2.89;75.04;96756.41;108747;1272;25501;-79
2024/01/24 06:25:58;;;;;;;5.50;2.40;;;;;;;2.89;75.17;96748.30;108810;1272;24195;-78
2024/01/24 06:28:35;;;;;;;8.00;2.00;;;;;;;2.90;75.28;96742.03;108781;1272;24391;-79
2024/01/24 06:31:06;;;;;;;6.00;2.10;;;;;;;2.88;75.36;96739.11;108788;1272;22517;-78
2024/01/24 06:33:37;;;;;;;7.60;2.60;;;;;;;2.87;75.58;96734.08;108824;1272;23769;-78
2024/01/24 06:36:12;;;;;;;6.70;2.00;;;;;;;2.91;75.72;96735.77;108761;1272;25417;-78
2024/01/24 06:38:51;;;;;;;6.00;1.90;;;;;;;2.97;76.05;96716.87;108812;1272;26584;-78
2024/01/24 06:41:23;;;;;;;8.00;3.30;;;;;;;3.03;76.22;96724.38;108782;1272;23960;-78
2024/01/24 06:43:54;;;;;;;3.80;1.60;;;;;;;3.08;76.51;96725.27;108815;1266;22580;-78
2024/01/24 06:46:29;;;;;;;5.50;2.00;;;;;;;3.09;76.72;96718.88;108828;1269;25457;-78
2024/01/24 06:49:06;;;;;;;5.30;1.70;;;;;;;3.12;77.01;96701.80;108778;1267;25291;-78
2024/01/24 06:51:37;;;;;;;6.20;1.70;;;;;;;3.16;77.11;96698.69;108788;1270;22564;-78
2024/01/24 06:54:12;;;;;;;8.50;2.20;;;;;;;3.13;77.31;96685.02;108799;1272;22740;-79
2024/01/24 06:56:44;;;;;;;7.70;2.20;;;;;;;3.11;77.51;96683.17;108816;1270;25955;-79
2024/01/24 06:59:15;;;;;;;2.00;1.10;;;;;;;3.10;78.04;96665.48;108765;1265;24210;-80
2024/01/24 07:01:49;;;;;;;5.20;1.80;;;;;;;3.08;78.64;96658.63;108686;1266;22885;-79
2024/01/24 07:04:20;;;;;;;7.30;2.00;;;;;;;3.05;79.26;96654.21;108728;1266;26007;-79
2024/01/24 07:06:54;;;;;;;4.50;1.40;;;;;;;3.00;79.50;96648.78;108814;1272;22969;-79
2024/01/24 07:09:27;;;;;;;5.10;1.80;;;;;;;2.92;79.71;96644.48;108787;1269;22518;-79
2024/01/24 07:12:02;;;;;;;5.70;1.80;;;;;;;2.84;80.63;96648.66;108737;1272;22535;-79
2024/01/24 07:14:33;;;;;;;4.50;1.60;;;;;;;2.80;81.47;96647.30;108798;1272;22520;-80
2024/01/24 07:17:05;;;;;;;6.50;1.90;;;;;;;2.79;82.03;96636.17;108773;1265;22524;-79
2024/01/24 07:19:39;;;;;;;7.90;2.10;;;;;;;2.81;82.46;96615.67;108780;1273;22526;-79
2024/01/24 07:22:10;;;;;;;3.40;1.40;;;;;;;2.80;82.84;96633.61;108762;1272;24010;-80
2024/01/24 07:24:47;;;;;;;4.00;1.30;;;;;;;2.85;83.05;96636.20;108836;1273;22527;-79
2024/01/24 07:27:18;;;;;;;2.90;1.40;;;;;;;2.90;83.48;96631.75;108759;1266;23927;-79
2024/01/24 07:29:50;;;;;;;4.70;1.70;;;;;;;2.98;83.69;96635.23;108744;1273;22646;-79
2024/01/24 07:32:24;;;;;;;3.10;1.20;;;;;;;3.08;83.87;96626.43;108707;1270;22560;-79
2024/01/24 07:35:01;;;;;;;3.80;0.90;;;;;;;3.17;83.57;96632.75;108803;1269;22517;-80
2024/01/24 07:37:34;;;;;;;1.90;1.10;;;;;;;3.23;83.52;96637.02;108798;1269;22644;-80
2024/01/24 07:40:20;;;;;;;2.50;1.00;;;;;;;3.27;83.54;96619.34;108742;1267;24473;-80
2024/01/24 07:42:55;;;;;;;4.00;1.10;;;;;;;3.32;83.77;96617.35;108767;1273;24190;-80
2024/01/24 07:45:26;;;;;;;2.30;0.90;;;;;;;3.35;83.53;96604.19;108772;1250;22517;-80
2024/01/24 07:47:57;;;;;;;1.50;1.00;;;;;;;3.39;83.53;96599.77;108791;1273;22521;-80
2024/01/24 07:50:32;;;;;;;2.20;1.20;;;;;;;3.42;83.51;96595.86;108773;1273;22524;-80
2024/01/24 07:53:06;;;;;;;1.40;0.90;;;;;;;3.44;83.41;96578.13;108810;1273;22530;-81
2024/01/24 07:55:37;;;;;;;3.10;1.40;;;;;;;3.47;83.34;96584.98;108760;1266;22643;-80
2024/01/24 07:58:11;;;;;;;2.20;1.10;;;;;;;3.47;83.22;96568.37;108714;1266;25424;-80
2024/01/24 08:00:42;;;;;;;2.80;1.40;;;;;;;3.47;83.11;96577.54;108737;1271;23798;-79
2024/01/24 08:03:14;;;;;;;1.50;1.00;;;;;;;3.44;83.25;96582.31;108776;1273;26653;-80
2024/01/24 08:05:45;;;;;;;2.70;0.90;;;;;;;3.45;83.29;96578.23;108775;1270;25408;-80
2024/01/24 08:08:20;;;;;;;2.10;1.00;;;;;;;3.47;83.38;96580.27;108791;1272;22528;-80
2024/01/24 08:10:55;;;;;;;1.10;0.40;;;;;;;3.54;83.40;96574.27;108738;1266;22514;-80
2024/01/24 08:13:31;;;;;;;0.70;0.50;;;;;;;3.69;83.41;96560.94;108805;1267;22513;-80
2024/01/24 08:16:03;;;;;;;1.20;0.70;;;;;;;3.85;83.10;96535.64;108782;1273;25400;-80
2024/01/24 08:18:34;;;;;;;1.10;0.70;;;;;;;4.03;82.59;96525.50;108809;1273;23800;-80
2024/01/24 08:21:06;;;;;;;2.60;0.70;;;;;;;4.15;82.38;96515.20;108743;1265;22549;-80
2024/01/24 08:23:39;;;;;;;1.90;0.90;;;;;;;4.16;81.87;96517.04;108773;1273;22535;-80
2024/01/24 08:26:12;;;;;;;1.90;0.90;;;;;;;4.16;81.46;96499.36;108720;1273;22531;-80
2024/01/24 08:28:43;;;;;;;2.10;1.00;;;;;;;4.12;81.31;96506.45;108784;1269;22585;-81
2024/01/24 08:31:14;;;;;;;3.20;1.50;;;;;;;4.09;81.07;96495.90;108747;1266;23830;-80
2024/01/24 08:33:50;;;;;;;2.80;1.40;;;;;;;4.02;80.86;96481.37;108764;1273;22531;-81
2024/01/24 08:36:23;;;;;;;1.20;0.70;;;;;;;3.94;80.97;96498.81;108796;1273;22511;-80
2024/01/24 08:38:57;;;;;;;2.50;1.20;;;;;;;3.89;81.27;96480.33;108777;1273;22630;-81
2024/01/24 08:41:28;;;;;;;1.80;0.90;;;;;;;3.83;81.46;96467.96;108779;1273;29697;-81
2024/01/24 08:44:02;;;;;;;2.80;0.80;;;;;;;3.81;81.79;96454.67;108784;1266;23392;-81
2024/01/24 08:46:36;;;;;;;4.00;1.50;;;;;;;3.80;82.10;96458.75;108777;1273;25287;-81
2024/01/24 08:49:12;;;;;;;1.90;1.00;;;;;;;3.77;82.36;96464.40;108755;1270;22640;-81
2024/01/24 08:51:46;;;;;;;2.70;1.30;;;;;;;3.80;82.71;96475.20;108737;1266;22644;-81
2024/01/24 08:54:17;;;;;;;0.80;0.60;;;;;;;3.87;82.65;96476.63;108771;1266;22621;-81
2024/01/24 08:56:48;;;;;;;2.40;0.70;;;;;;;3.93;82.64;96477.65;108795;1266;22534;-81
2024/01/24 08:59:24;;;;;;;1.10;1.00;;;;;;;4.00;82.50;96480.02;108762;1266;23877;-81
2024/01/24 09:01:56;;;;;;;0.70;0.60;;;;;;;4.05;82.59;96488.60;108805;1272;23251;-81
2024/01/24 09:04:27;;;;;;;1.60;0.70;;;;;;;4.10;82.34;96481.81;108718;1268;22552;-83
2024/01/24 09:07:01;;;;;;;0.80;0.50;;;;;;;4.04;82.46;96470.95;108786;1266;25428;-83
2024/01/24 09:09:35;;;;;;;0.50;0.40;;;;;;;3.99;82.48;96464.12;108749;1273;22526;-83
2024/01/24 09:12:07;;;;;;;0.90;0.80;;;;;;;3.93;82.78;96461.45;108751;1273;24029;-82
2024/01/24 09:14:39;;;;;;;1.40;0.70;;;;;;;3.91;83.05;96466.77;108790;1269;25291;-82
2024/01/24 09:17:10;;;;;;;1.40;0.90;;;;;;;3.87;83.43;96458.80;108720;1266;22549;-82
2024/01/24 09:19:41;;;;;;;1.70;0.90;;;;;;;3.80;84.29;96462.46;108747;1266;22517;-81
2024/01/24 09:22:13;;;;;;;0.60;0.40;;;;;;;3.77;84.67;96464.28;108783;1273;25351;-81
2024/01/24 09:24:49;;;;;;;1.10;0.80;;;;;;;3.73;85.57;96455.00;108825;1272;22539;-82
2024/01/24 09:27:21;;;;;;;0.40;0.30;;;;;;;3.68;85.92;96430.45;108778;1266;24103;-82
2024/01/24 09:29:53;;;;;;;0.90;0.50;;;;;;;3.65;86.32;96434.48;108843;1266;22575;-81
2024/01/24 09:32:29;;;;;;;0.90;0.40;;;;;;;3.58;86.76;96446.48;108886;1266;22517;-81
2024/01/24 09:35:03;;;;;;;1.80;0.80;;;;;;;3.55;87.36;96427.10;108890;1272;22545;-83
2024/01/24 09:37:34;;;;;;;0.80;0.50;;;;;;;3.53;87.70;96422.39;108904;1267;22664;-82
2024/01/24 09:40:12;;;;;;;1.10;0.70;;;;;;;3.50;88.15;96394.66;108809;1266;22521;-82
2024/01/24 09:42:47;;;;;;;1.80;1.00;;;;;;;3.53;88.70;96382.63;108814;1269;24244;-81
2024/01/24 09:45:23;;;;;;;1.90;0.90;;;;;;;3.52;89.29;96386.27;108789;1266;25278;-80
2024/01/24 09:47:55;;;;;;;2.40;1.00;;;;;;;3.51;89.64;96380.58;108762;1273;22517;-80
2024/01/24 09:50:29;;;;;;;1.30;0.80;;;;;;;3.58;90.16;96382.98;108764;1273;25135;-80
2024/01/24 09:53:06;;;;;;;2.10;1.10;;;;;;;3.63;90.26;96389.61;108775;1273;25170;-81
2024/01/24 09:55:37;;;;;;;2.20;1.10;;;;;;;3.63;90.28;96366.98;108828;1273;22523;-81
2024/01/24 09:58:10;;;;;;;1.90;0.60;;;;;;;3.58;90.11;96399.83;108767;1272;22523;-81
2024/01/24 10:00:44;;;;;;;1.00;0.60;;;;;;;3.55;90.35;96390.30;108777;1272;22516;-80
2024/01/24 10:03:18;;;;;;;2.50;0.80;;;;;;;3.60;90.60;96396.13;108742;1272;22521;-80
2024/01/24 10:05:58;;;;;;;0.90;0.60;;;;;;;3.61;90.65;96402.85;108803;1273;22542;-80
2024/01/24 10:08:32;;;;;;;1.30;0.80;;;;;;;3.64;90.74;96387.27;108739;1273;24251;-79
2024/01/24 10:11:09;;;;;;;1.40;0.70;;;;;;;3.67;90.94;96373.29;108736;1273;22594;-79
2024/01/24 10:13:41;;;;;;;1.10;0.70;;;;;;;3.69;91.32;96381.02;108773;1266;22594;-79
2024/01/24 10:16:13;;;;;;;0.80;0.60;;;;;;;3.75;91.64;96377.74;108758;1273;22568;-80
2024/01/24 10:18:45;;;;;;;3.00;1.10;;;;;;;3.77;91.70;96369.00;108743;1269;22701;-80
2024/01/24 10:21:19;;;;;;;1.50;0.90;;;;;;;3.78;91.75;96361.10;108712;1266;25338;-81
2024/01/24 10:23:51;;;;;;;0.70;0.70;;;;;;;3.81;93.00;96361.48;108872;1269;22516;-81
2024/01/24 10:26:29;;;;;;;0.40;0.30;;;;;;;3.93;93.52;96355.72;108733;1271;22511;-80
2024/01/24 10:29:09;;;;;;;1.20;0.60;;;;;;;4.03;93.71;96344.73;108815;1269;22523;-81
2024/01/24 10:31:43;;;;;;;0.40;0.30;;;;;;;4.05;93.95;96338.97;108744;1266;23852;-81
2024/01/24 10:34:17;;;;;;;0.50;0.30;;;;;;;4.06;94.27;96334.63;108786;1273;25313;-81
2024/01/24 10:36:50;;;;;;;0.80;0.40;;;;;;;4.07;94.95;96317.54;108785;1272;23544;-81
2024/01/24 10:39:23;;;;;;;0.20;0.20;;;;;;;4.12;95.75;96337.88;108771;1268;25500;-81
2024/01/24 10:41:59;;;;;;;1.20;0.50;;;;;;;4.15;96.14;96333.45;108739;1266;22563;-81
2024/01/24 10:44:35;;;;;;;0.70;0.30;;;;;;;4.17;96.22;96331.52;108766;1269;22496;-81
2024/01/24 10:47:10;;;;;;;0.90;0.50;;;;;;;4.14;96.10;96333.85;108805;1269;22789;-81
2024/01/24 10:49:44;;;;;;;0.70;0.50;;;;;;;4.12;96.49;96341.12;108813;1273;22528;-81
2024/01/24 10:52:18;;;;;;;1.20;0.60;;;;;;;4.12;96.89;96326.64;108753;1273;24239;-80
2024/01/24 10:54:58;;;;;;;1.00;0.40;;;;;;;4.14;97.12;96337.95;108747;1273;25530;-80
2024/01/24 10:57:35;;;;;;;0.70;0.50;;;;;;;4.14;97.51;96340.25;108806;1269;22517;-80
2024/01/24 11:00:10;;;;;;;1.90;0.50;;;;;;;4.19;98.18;96327.81;108798;1267;22550;-81
2024/01/24 11:02:42;;;;;;;0.90;0.50;;;;;;;4.22;98.51;96339.93;108801;1250;22514;-80
2024/01/24 11:05:26;;;;;;;1.10;0.40;;;;;;;4.22;98.60;96342.48;108761;1251;22514;-81
2024/01/24 11:08:05;;;;;;;0.90;0.50;;;;;;;4.23;98.59;96329.61;108808;1272;22521;-81
2024/01/24 11:10:45;;;;;;;0.60;0.40;;;;;;;4.22;98.43;96324.91;108746;1266;22570;-82
2024/01/24 11:13:21;;;;;;;0.70;0.40;;;;;;;4.23;99.17;96342.57;108766;1273;22524;-81
2024/01/24 11:15:57;;;;;;;0.80;0.30;;;;;;;4.27;99.04;96327.13;108775;1257;22517;-81
2024/01/24 11:18:34;;;;;;;0.90;0.50;;;;;;;4.27;99.36;96333.48;108795;1266;22527;-82
2024/01/24 11:21:11;;;;;;;0.70;0.40;;;;;;;4.25;99.05;96321.81;108727;1271;25410;-81
2024/01/24 11:23:46;;;;;;;0.50;0.40;;;;;;;4.21;99.13;96307.21;108818;1269;25964;-81
2024/01/24 11:26:48;;;;;;;1.10;0.40;;;;;;;4.21;99.23;96306.89;108798;1272;26456;-82
2024/01/24 11:29:24;;;;;;;1.20;0.60;;;;;;;4.21;99.04;96291.93;108766;1272;22542;-81
2024/01/24 11:32:00;;;;;;;0.70;0.40;;;;;;;4.17;99.03;96283.72;108757;1267;22534;-81
2024/01/24 11:34:33;;;;;;;6.30;1.00;;;;;;;4.13;98.86;96273.66;108786;1272;22517;-81
2024/01/24 11:37:07;;;;;;;0.70;0.60;;;;;;;4.12;98.87;96258.23;108751;1250;22517;-82
2024/01/24 11:39:39;;;;;;;1.50;0.70;;;;;;;4.14;99.18;96259.03;108743;1266;22524;-82
2024/01/24 11:42:43;;;;;;;1.60;0.60;;;;;;;4.12;99.07;96268.67;108783;1272;22515;-82
2024/01/24 11:45:19;;;;;;;0.40;0.30;;;;;;;4.18;99.33;96295.02;108776;1272;25278;-83
2024/01/24 11:47:54;;;;;;;1.70;0.50;;;;;;;4.45;100.00;96290.10;109120;1272;22518;-84
2024/01/24 11:50:28;;;;;;;1.10;0.70;;;;;;;4.61;99.96;96289.64;109092;1272;22527;-83
2024/01/24 11:53:04;;;;;;;0.60;0.60;;;;;;;4.66;99.78;96282.41;109145;1273;22527;-83
2024/01/24 11:55:37;;;;;;;1.20;0.60;;;;;;;4.67;99.68;96265.83;109113;1261;22573;-83
2024/01/24 11:58:08;;;;;;;1.80;1.20;;;;;;;4.69;99.40;96255.17;109149;1262;23825;-83
2024/01/24 12:00:40;;;;;;;1.80;1.10;;;;;;;4.61;98.75;96244.75;109087;1272;22576;-83
2024/01/24 12:03:15;;;;;;;1.10;0.70;;;;;;;4.47;98.48;96244.20;109054;1272;145560;-84